sensor_id;sensor_type;location;lat;lon;timestamp;temperature;humidity
70820;DHT22;58439;51.046;13.692;2023-02-23T00:01:31;6.40;99.90
70820;DHT22;58439;51.046;13.692;2023-02-23T00:04:17;6.40;99.90
70820;DHT22;58439;51.046;13.692;2023-02-23T00:07:04;6.40;99.90
70820;DHT22;58439;51.046;13.692;2023-02-23T00:09:50;6.50;99.90
70820;DHT22;58439;51.046;13.692;2023-02-23T00:12:41;6.50;99.90
70820;DHT22;58439;51.046;13.692;2023-02-23T00:15:30;6.50;99.90
70820;DHT22;58439;51.046;13.692;2023-02-23T00:18:16;6.50;99.90
70820;DHT22;58439;51.046;13.692;2023-02-23T00:21:02;6.50;99.90
70820;DHT22;58439;51.046;13.692;2023-02-23T00:23:56;6.50;99.90
70820;DHT22;58439;51.046;13.692;2023-02-23T00:26:43;6.50;99.90
70820;DHT22;58439;51.046;13.692;2023-02-23T00:29:32;6.50;99.90
70820;DHT22;58439;51.046;13.692;2023-02-23T00:32:24;6.50;99.90
70820;DHT22;58439;51.046;13.692;2023-02-23T00:35:14;6.50;99.90
70820;DHT22;58439;51.046;13.692;2023-02-23T00:38:03;6.50;99.90
70820;DHT22;58439;51.046;13.692;2023-02-23T00:40:49;6.60;99.90
70820;DHT22;58439;51.046;13.692;2023-02-23T00:43:39;6.60;99.90
70820;DHT22;58439;51.046;13.692;2023-02-23T00:46:50;6.60;99.90
70820;DHT22;58439;51.046;13.692;2023-02-23T00:49:37;6.60;99.90
70820;DHT22;58439;51.046;13.692;2023-02-23T00:52:22;6.60;99.90
70820;DHT22;58439;51.046;13.692;2023-02-23T00:55:10;6.70;99.90
70820;DHT22;58439;51.046;13.692;2023-02-23T00:57:58;6.70;99.90
70820;DHT22;58439;51.046;13.692;2023-02-23T01:00:44;6.70;99.90
70820;DHT22;58439;51.046;13.692;2023-02-23T01:03:30;6.70;99.90
70820;DHT22;58439;51.046;13.692;2023-02-23T01:06:16;6.70;99.90
70820;DHT22;58439;51.046;13.692;2023-02-23T01:09:07;6.70;99.90
70820;DHT22;58439;51.046;13.692;2023-02-23T01:11:55;6.70;99.90
70820;DHT22;58439;51.046;13.692;2023-02-23T01:14:42;6.70;99.90
70820;DHT22;58439;51.046;13.692;2023-02-23T01:17:28;6.70;99.90
70820;DHT22;58439;51.046;13.692;2023-02-23T01:20:15;6.70;99.90
70820;DHT22;58439;51.046;13.692;2023-02-23T01:23:04;6.80;99.90
70820;DHT22;58439;51.046;13.692;2023-02-23T01:25:51;6.80;99.90
70820;DHT22;58439;51.046;13.692;2023-02-23T01:28:40;6.80;99.90
70820;DHT22;58439;51.046;13.692;2023-02-23T01:31:47;6.80;99.90
70820;DHT22;58439;51.046;13.692;2023-02-23T01:34:54;6.80;99.90
70820;DHT22;58439;51.046;13.692;2023-02-23T01:37:59;6.80;99.90
70820;DHT22;58439;51.046;13.692;2023-02-23T01:41:03;6.80;99.90
70820;DHT22;58439;51.046;13.692;2023-02-23T01:47:18;6.80;99.90
70820;DHT22;58439;51.046;13.692;2023-02-23T01:50:30;6.70;99.90
70820;DHT22;58439;51.046;13.692;2023-02-23T01:53:47;6.80;99.90
70820;DHT22;58439;51.046;13.692;2023-02-23T01:56:43;6.80;99.90
70820;DHT22;58439;51.046;13.692;2023-02-23T01:59:46;6.80;99.90
70820;DHT22;58439;51.046;13.692;2023-02-23T02:02:34;6.80;99.90
70820;DHT22;58439;51.046;13.692;2023-02-23T02:05:20;6.80;99.90
70820;DHT22;58439;51.046;13.692;2023-02-23T02:08:07;6.80;99.90
70820;DHT22;58439;51.046;13.692;2023-02-23T02:10:55;6.80;99.90
70820;DHT22;58439;51.046;13.692;2023-02-23T02:13:43;6.80;99.90
70820;DHT22;58439;51.046;13.692;2023-02-23T02:19:55;6.90;99.90
70820;DHT22;58439;51.046;13.692;2023-02-23T02:23:00;6.90;99.90
70820;DHT22;58439;51.046;13.692;2023-02-23T02:35:51;6.90;99.90
70820;DHT22;58439;51.046;13.692;2023-02-23T02:39:14;7.00;99.90
70820;DHT22;58439;51.046;13.692;2023-02-23T02:42:39;7.00;99.90
70820;DHT22;58439;51.046;13.692;2023-02-23T02:45:48;7.00;99.90
70820;DHT22;58439;51.046;13.692;2023-02-23T02:48:58;7.00;99.90
70820;DHT22;58439;51.046;13.692;2023-02-23T02:52:34;7.00;99.90
70820;DHT22;58439;51.046;13.692;2023-02-23T02:55:43;7.00;99.90
70820;DHT22;58439;51.046;13.692;2023-02-23T02:58:51;7.00;99.90
70820;DHT22;58439;51.046;13.692;2023-02-23T03:02:00;6.90;99.90
70820;DHT22;58439;51.046;13.692;2023-02-23T03:05:47;7.00;99.90
70820;DHT22;58439;51.046;13.692;2023-02-23T03:09:24;7.00;99.90
70820;DHT22;58439;51.046;13.692;2023-02-23T03:13:17;7.00;99.90
70820;DHT22;58439;51.046;13.692;2023-02-23T03:20:51;7.00;99.90
70820;DHT22;58439;51.046;13.692;2023-02-23T03:24:33;7.00;99.90
70820;DHT22;58439;51.046;13.692;2023-02-23T03:28:13;7.00;99.90
70820;DHT22;58439;51.046;13.692;2023-02-23T03:35:08;7.00;99.90
70820;DHT22;58439;51.046;13.692;2023-02-23T03:38:40;7.00;99.90
70820;DHT22;58439;51.046;13.692;2023-02-23T03:41:50;7.00;99.90
70820;DHT22;58439;51.046;13.692;2023-02-23T03:44:58;7.00;99.90
70820;DHT22;58439;51.046;13.692;2023-02-23T03:48:10;7.00;99.90
70820;DHT22;58439;51.046;13.692;2023-02-23T03:51:18;7.00;99.90
70820;DHT22;58439;51.046;13.692;2023-02-23T03:54:34;7.00;99.90
70820;DHT22;58439;51.046;13.692;2023-02-23T03:57:46;7.00;99.90
70820;DHT22;58439;51.046;13.692;2023-02-23T04:00:58;7.00;99.90
70820;DHT22;58439;51.046;13.692;2023-02-23T04:04:08;7.00;99.90
70820;DHT22;58439;51.046;13.692;2023-02-23T04:07:16;7.10;99.90
70820;DHT22;58439;51.046;13.692;2023-02-23T04:10:25;7.00;99.90
70820;DHT22;58439;51.046;13.692;2023-02-23T04:13:33;7.00;99.90
70820;DHT22;58439;51.046;13.692;2023-02-23T04:16:23;7.00;99.90
70820;DHT22;58439;51.046;13.692;2023-02-23T04:19:09;7.00;99.90
70820;DHT22;58439;51.046;13.692;2023-02-23T04:21:55;7.10;99.90
70820;DHT22;58439;51.046;13.692;2023-02-23T04:24:41;7.00;99.90
70820;DHT22;58439;51.046;13.692;2023-02-23T04:27:27;7.00;99.90
70820;DHT22;58439;51.046;13.692;2023-02-23T04:30:13;7.00;99.90
70820;DHT22;58439;51.046;13.692;2023-02-23T04:33:00;7.00;99.90
70820;DHT22;58439;51.046;13.692;2023-02-23T04:35:46;7.00;99.90
70820;DHT22;58439;51.046;13.692;2023-02-23T04:43:14;6.90;99.90
70820;DHT22;58439;51.046;13.692;2023-02-23T04:46:00;6.90;99.90
70820;DHT22;58439;51.046;13.692;2023-02-23T04:48:46;6.90;99.90
70820;DHT22;58439;51.046;13.692;2023-02-23T04:51:32;6.90;99.90
70820;DHT22;58439;51.046;13.692;2023-02-23T04:54:19;6.90;99.90
70820;DHT22;58439;51.046;13.692;2023-02-23T04:57:05;6.90;99.90
70820;DHT22;58439;51.046;13.692;2023-02-23T05:00:10;6.80;99.90
70820;DHT22;58439;51.046;13.692;2023-02-23T05:03:14;6.80;99.90
70820;DHT22;58439;51.046;13.692;2023-02-23T05:06:19;6.80;99.90
70820;DHT22;58439;51.046;13.692;2023-02-23T05:09:09;6.70;99.90
70820;DHT22;58439;51.046;13.692;2023-02-23T05:11:55;6.60;99.90
70820;DHT22;58439;51.046;13.692;2023-02-23T05:14:40;6.60;99.90
70820;DHT22;58439;51.046;13.692;2023-02-23T05:17:26;6.60;99.90
70820;DHT22;58439;51.046;13.692;2023-02-23T05:20:13;6.60;99.90
70820;DHT22;58439;51.046;13.692;2023-02-23T05:22:59;6.60;99.90
70820;DHT22;58439;51.046;13.692;2023-02-23T05:25:45;6.60;99.90
70820;DHT22;58439;51.046;13.692;2023-02-23T05:28:32;6.60;99.90
70820;DHT22;58439;51.046;13.692;2023-02-23T05:31:19;6.60;99.90
70820;DHT22;58439;51.046;13.692;2023-02-23T05:34:05;6.50;99.90
70820;DHT22;58439;51.046;13.692;2023-02-23T05:36:51;6.50;99.90
70820;DHT22;58439;51.046;13.692;2023-02-23T05:39:39;6.50;99.90
70820;DHT22;58439;51.046;13.692;2023-02-23T05:42:25;6.50;99.90
70820;DHT22;58439;51.046;13.692;2023-02-23T05:45:11;6.50;99.90
70820;DHT22;58439;51.046;13.692;2023-02-23T05:48:00;6.50;99.90
70820;DHT22;58439;51.046;13.692;2023-02-23T05:50:46;6.50;99.90
70820;DHT22;58439;51.046;13.692;2023-02-23T05:53:32;6.50;99.90
70820;DHT22;58439;51.046;13.692;2023-02-23T05:56:21;6.40;99.90
70820;DHT22;58439;51.046;13.692;2023-02-23T05:59:07;6.40;99.90
70820;DHT22;58439;51.046;13.692;2023-02-23T06:02:31;6.40;99.90
70820;DHT22;58439;51.046;13.692;2023-02-23T06:09:08;6.40;99.90
70820;DHT22;58439;51.046;13.692;2023-02-23T06:12:01;6.40;99.90
70820;DHT22;58439;51.046;13.692;2023-02-23T06:14:47;6.40;99.90
70820;DHT22;58439;51.046;13.692;2023-02-23T06:17:35;6.40;99.90
70820;DHT22;58439;51.046;13.692;2023-02-23T06:20:32;6.40;99.90
70820;DHT22;58439;51.046;13.692;2023-02-23T06:23:18;6.40;99.90
70820;DHT22;58439;51.046;13.692;2023-02-23T06:26:12;6.40;99.90
70820;DHT22;58439;51.046;13.692;2023-02-23T06:28:57;6.50;99.90
70820;DHT22;58439;51.046;13.692;2023-02-23T06:32:09;6.60;99.90
70820;DHT22;58439;51.046;13.692;2023-02-23T06:35:11;6.70;99.90
70820;DHT22;58439;51.046;13.692;2023-02-23T06:37:58;6.80;99.90
70820;DHT22;58439;51.046;13.692;2023-02-23T06:40:44;6.80;99.90
70820;DHT22;58439;51.046;13.692;2023-02-23T06:48:27;6.90;99.90
70820;DHT22;58439;51.046;13.692;2023-02-23T06:51:12;7.00;99.90
70820;DHT22;58439;51.046;13.692;2023-02-23T06:53:59;7.00;99.90
70820;DHT22;58439;51.046;13.692;2023-02-23T06:57:00;7.10;99.90
70820;DHT22;58439;51.046;13.692;2023-02-23T06:59:46;7.10;99.90
70820;DHT22;58439;51.046;13.692;2023-02-23T07:02:33;7.10;99.90
70820;DHT22;58439;51.046;13.692;2023-02-23T07:05:39;7.20;99.90
70820;DHT22;58439;51.046;13.692;2023-02-23T07:08:46;7.20;99.90
70820;DHT22;58439;51.046;13.692;2023-02-23T07:11:50;7.20;99.90
70820;DHT22;58439;51.046;13.692;2023-02-23T07:14:54;7.30;99.90
70820;DHT22;58439;51.046;13.692;2023-02-23T07:17:58;7.40;99.90
70820;DHT22;58439;51.046;13.692;2023-02-23T07:20:46;7.40;99.90
70820;DHT22;58439;51.046;13.692;2023-02-23T07:23:33;7.50;99.90
70820;DHT22;58439;51.046;13.692;2023-02-23T08:54:03;9.30;98.60
70820;DHT22;58439;51.046;13.692;2023-02-23T08:57:06;9.40;98.70
70820;DHT22;58439;51.046;13.692;2023-02-23T09:00:11;9.40;98.60
70820;DHT22;58439;51.046;13.692;2023-02-23T09:03:19;9.50;98.50
70820;DHT22;58439;51.046;13.692;2023-02-23T09:06:25;9.60;98.60
70820;DHT22;58439;51.046;13.692;2023-02-23T09:09:30;9.70;98.20
70820;DHT22;58439;51.046;13.692;2023-02-23T09:12:35;9.70;97.90
70820;DHT22;58439;51.046;13.692;2023-02-23T09:15:39;9.80;97.70
70820;DHT22;58439;51.046;13.692;2023-02-23T09:18:44;9.90;97.50
70820;DHT22;58439;51.046;13.692;2023-02-23T09:21:31;10.00;97.20
70820;DHT22;58439;51.046;13.692;2023-02-23T09:25:09;10.10;96.90
70820;DHT22;58439;51.046;13.692;2023-02-23T09:28:45;10.20;96.70
70820;DHT22;58439;51.046;13.692;2023-02-23T09:32:23;10.40;96.10
70820;DHT22;58439;51.046;13.692;2023-02-23T09:35:34;10.60;95.80
70820;DHT22;58439;51.046;13.692;2023-02-23T09:39:17;10.70;95.40
70820;DHT22;58439;51.046;13.692;2023-02-23T09:48:01;11.20;94.50
70820;DHT22;58439;51.046;13.692;2023-02-23T09:51:59;11.50;93.10
70820;DHT22;58439;51.046;13.692;2023-02-23T09:55:38;11.90;91.60
70820;DHT22;58439;51.046;13.692;2023-02-23T09:58:48;12.30;91.70
70820;DHT22;58439;51.046;13.692;2023-02-23T10:01:55;12.60;90.90
70820;DHT22;58439;51.046;13.692;2023-02-23T10:05:21;12.70;90.30
70820;DHT22;58439;51.046;13.692;2023-02-23T10:09:02;12.70;88.90
70820;DHT22;58439;51.046;13.692;2023-02-23T10:19:31;13.20;83.80
70820;DHT22;58439;51.046;13.692;2023-02-23T10:22:50;13.60;77.60
70820;DHT22;58439;51.046;13.692;2023-02-23T10:25:57;13.90;76.50
70820;DHT22;58439;51.046;13.692;2023-02-23T10:29:14;13.90;74.80
70820;DHT22;58439;51.046;13.692;2023-02-23T10:32:44;13.90;76.10
70820;DHT22;58439;51.046;13.692;2023-02-23T10:35:57;13.80;76.40
70820;DHT22;58439;51.046;13.692;2023-02-23T10:39:12;13.90;76.80
70820;DHT22;58439;51.046;13.692;2023-02-23T10:42:22;14.00;74.50
70820;DHT22;58439;51.046;13.692;2023-02-23T10:45:17;14.40;74.50
70820;DHT22;58439;51.046;13.692;2023-02-23T10:48:19;15.00;67.50
70820;DHT22;58439;51.046;13.692;2023-02-23T10:51:20;15.50;63.90
70820;DHT22;58439;51.046;13.692;2023-02-23T10:54:34;15.80;60.00
70820;DHT22;58439;51.046;13.692;2023-02-23T10:57:31;15.80;58.20
70820;DHT22;58439;51.046;13.692;2023-02-23T11:03:21;15.70;59.60
70820;DHT22;58439;51.046;13.692;2023-02-23T11:06:30;15.80;57.40
70820;DHT22;58439;51.046;13.692;2023-02-23T11:12:37;16.30;54.40
70820;DHT22;58439;51.046;13.692;2023-02-23T11:15:30;16.50;53.40
70820;DHT22;58439;51.046;13.692;2023-02-23T11:18:37;16.60;51.50
70820;DHT22;58439;51.046;13.692;2023-02-23T11:21:31;16.70;50.90
70820;DHT22;58439;51.046;13.692;2023-02-23T11:24:32;17.00;50.70
70820;DHT22;58439;51.046;13.692;2023-02-23T11:27:26;17.40;49.70
70820;DHT22;58439;51.046;13.692;2023-02-23T11:30:13;17.70;47.60
70820;DHT22;58439;51.046;13.692;2023-02-23T11:33:16;17.80;46.80
70820;DHT22;58439;51.046;13.692;2023-02-23T11:39:18;18.50;44.90
70820;DHT22;58439;51.046;13.692;2023-02-23T11:42:21;19.00;44.40
70820;DHT22;58439;51.046;13.692;2023-02-23T11:49:31;19.70;41.90
70820;DHT22;58439;51.046;13.692;2023-02-23T11:52:23;20.10;40.40
70820;DHT22;58439;51.046;13.692;2023-02-23T11:55:17;20.30;40.00
70820;DHT22;58439;51.046;13.692;2023-02-23T11:58:35;20.50;39.00
70820;DHT22;58439;51.046;13.692;2023-02-23T12:01:42;20.50;38.70
70820;DHT22;58439;51.046;13.692;2023-02-23T12:04:35;20.40;38.50
70820;DHT22;58439;51.046;13.692;2023-02-23T12:07:31;20.10;38.70
70820;DHT22;58439;51.046;13.692;2023-02-23T12:13:39;20.10;38.90
70820;DHT22;58439;51.046;13.692;2023-02-23T12:16:37;20.00;39.10
70820;DHT22;58439;51.046;13.692;2023-02-23T12:19:36;19.70;39.40
70820;DHT22;58439;51.046;13.692;2023-02-23T12:22:35;19.60;39.70
70820;DHT22;58439;51.046;13.692;2023-02-23T12:25:34;19.50;40.30
70820;DHT22;58439;51.046;13.692;2023-02-23T12:36:54;18.90;41.00
70820;DHT22;58439;51.046;13.692;2023-02-23T12:39:50;18.90;41.50
70820;DHT22;58439;51.046;13.692;2023-02-23T12:53:39;19.50;40.40
70820;DHT22;58439;51.046;13.692;2023-02-23T13:03:47;19.90;39.60
70820;DHT22;58439;51.046;13.692;2023-02-23T13:07:20;19.80;40.00
70820;DHT22;58439;51.046;13.692;2023-02-23T13:10:48;19.50;40.40
70820;DHT22;58439;51.046;13.692;2023-02-23T13:14:13;18.90;41.40
70820;DHT22;58439;51.046;13.692;2023-02-23T13:22:27;17.50;44.40
70820;DHT22;58439;51.046;13.692;2023-02-23T13:25:59;16.80;46.10
70820;DHT22;58439;51.046;13.692;2023-02-23T13:32:42;15.70;49.70
70820;DHT22;58439;51.046;13.692;2023-02-23T13:35:47;15.50;52.40
70820;DHT22;58439;51.046;13.692;2023-02-23T13:39:54;15.40;54.50
70820;DHT22;58439;51.046;13.692;2023-02-23T13:43:08;15.20;57.30
70820;DHT22;58439;51.046;13.692;2023-02-23T13:46:48;15.10;60.40
70820;DHT22;58439;51.046;13.692;2023-02-23T13:50:15;15.00;62.00
70820;DHT22;58439;51.046;13.692;2023-02-23T13:53:43;15.00;63.30
70820;DHT22;58439;51.046;13.692;2023-02-23T14:05:43;14.60;69.00
70820;DHT22;58439;51.046;13.692;2023-02-23T14:08:41;14.50;70.10
70820;DHT22;58439;51.046;13.692;2023-02-23T14:11:47;14.40;72.00
70820;DHT22;58439;51.046;13.692;2023-02-23T14:26:17;14.00;80.30
70820;DHT22;58439;51.046;13.692;2023-02-23T14:38:29;13.80;86.50
70820;DHT22;58439;51.046;13.692;2023-02-23T14:41:54;13.70;87.20
70820;DHT22;58439;51.046;13.692;2023-02-23T14:44:43;13.60;90.00
70820;DHT22;58439;51.046;13.692;2023-02-23T14:47:41;13.50;90.80
70820;DHT22;58439;51.046;13.692;2023-02-23T14:50:40;13.40;91.40
70820;DHT22;58439;51.046;13.692;2023-02-23T14:53:28;13.30;92.10
70820;DHT22;58439;51.046;13.692;2023-02-23T14:56:22;13.10;92.80
70820;DHT22;58439;51.046;13.692;2023-02-23T15:03:10;12.90;94.20
70820;DHT22;58439;51.046;13.692;2023-02-23T15:08:20;12.70;95.50
70820;DHT22;58439;51.046;13.692;2023-02-23T15:11:17;12.70;96.00
70820;DHT22;58439;51.046;13.692;2023-02-23T15:14:31;12.60;96.50
70820;DHT22;58439;51.046;13.692;2023-02-23T15:17:05;12.50;96.80
70820;DHT22;58439;51.046;13.692;2023-02-23T15:19:39;12.50;97.10
70820;DHT22;58439;51.046;13.692;2023-02-23T15:22:06;12.50;97.30
70820;DHT22;58439;51.046;13.692;2023-02-23T15:24:47;12.50;97.50
70820;DHT22;58439;51.046;13.692;2023-02-23T15:27:54;12.50;98.10
70820;DHT22;58439;51.046;13.692;2023-02-23T15:35:02;12.60;98.30
70820;DHT22;58439;51.046;13.692;2023-02-23T15:37:49;12.60;98.30
70820;DHT22;58439;51.046;13.692;2023-02-23T15:40:37;12.60;98.40
70820;DHT22;58439;51.046;13.692;2023-02-23T15:43:06;12.60;98.40
70820;DHT22;58439;51.046;13.692;2023-02-23T15:45:43;12.50;98.40
70820;DHT22;58439;51.046;13.692;2023-02-23T15:48:20;12.50;98.50
70820;DHT22;58439;51.046;13.692;2023-02-23T15:50:55;12.50;98.50
70820;DHT22;58439;51.046;13.692;2023-02-23T15:53:36;12.40;98.60
70820;DHT22;58439;51.046;13.692;2023-02-23T15:56:12;12.40;98.80
70820;DHT22;58439;51.046;13.692;2023-02-23T15:58:48;12.40;99.00
70820;DHT22;58439;51.046;13.692;2023-02-23T16:01:32;12.40;99.40
70820;DHT22;58439;51.046;13.692;2023-02-23T16:06:52;12.30;99.90
70820;DHT22;58439;51.046;13.692;2023-02-23T16:09:37;12.30;99.90
70820;DHT22;58439;51.046;13.692;2023-02-23T16:12:09;12.30;99.90
70820;DHT22;58439;51.046;13.692;2023-02-23T16:20:33;12.20;99.90
70820;DHT22;58439;51.046;13.692;2023-02-23T16:23:06;12.20;99.90
70820;DHT22;58439;51.046;13.692;2023-02-23T16:25:55;12.10;99.90
70820;DHT22;58439;51.046;13.692;2023-02-23T16:28:43;12.10;99.90
70820;DHT22;58439;51.046;13.692;2023-02-23T16:31:21;12.10;99.90
70820;DHT22;58439;51.046;13.692;2023-02-23T16:33:56;12.10;99.90
70820;DHT22;58439;51.046;13.692;2023-02-23T16:36:58;12.00;99.90
70820;DHT22;58439;51.046;13.692;2023-02-23T16:39:44;12.00;99.90
70820;DHT22;58439;51.046;13.692;2023-02-23T16:45:29;12.00;99.90
70820;DHT22;58439;51.046;13.692;2023-02-23T16:48:16;12.00;99.90
70820;DHT22;58439;51.046;13.692;2023-02-23T16:50:47;11.90;99.90
70820;DHT22;58439;51.046;13.692;2023-02-23T16:53:57;11.90;99.90
70820;DHT22;58439;51.046;13.692;2023-02-23T16:56:30;11.80;99.90
70820;DHT22;58439;51.046;13.692;2023-02-23T16:59:10;11.80;99.90
70820;DHT22;58439;51.046;13.692;2023-02-23T17:01:43;11.70;99.90
70820;DHT22;58439;51.046;13.692;2023-02-23T17:04:20;11.70;99.90
70820;DHT22;58439;51.046;13.692;2023-02-23T17:06:49;11.70;99.90
70820;DHT22;58439;51.046;13.692;2023-02-23T17:09:24;11.70;99.90
70820;DHT22;58439;51.046;13.692;2023-02-23T17:11:51;11.60;99.90
70820;DHT22;58439;51.046;13.692;2023-02-23T17:14:26;11.60;99.90
70820;DHT22;58439;51.046;13.692;2023-02-23T17:17:11;11.60;99.90
70820;DHT22;58439;51.046;13.692;2023-02-23T17:19:41;11.60;99.90
70820;DHT22;58439;51.046;13.692;2023-02-23T17:22:10;11.60;99.90
70820;DHT22;58439;51.046;13.692;2023-02-23T17:24:41;11.60;99.90
70820;DHT22;58439;51.046;13.692;2023-02-23T17:30:24;11.60;99.90
70820;DHT22;58439;51.046;13.692;2023-02-23T17:32:55;11.50;99.90
70820;DHT22;58439;51.046;13.692;2023-02-23T17:35:25;11.60;99.90
70820;DHT22;58439;51.046;13.692;2023-02-23T17:37:53;11.50;99.90
70820;DHT22;58439;51.046;13.692;2023-02-23T17:40:22;11.50;99.90
70820;DHT22;58439;51.046;13.692;2023-02-23T17:43:04;11.50;99.90
70820;DHT22;58439;51.046;13.692;2023-02-23T17:45:35;11.50;99.90
70820;DHT22;58439;51.046;13.692;2023-02-23T17:48:02;11.40;99.90
70820;DHT22;58439;51.046;13.692;2023-02-23T17:50:30;11.40;99.90
70820;DHT22;58439;51.046;13.692;2023-02-23T17:52:57;11.40;99.90
70820;DHT22;58439;51.046;13.692;2023-02-23T17:58:24;11.40;99.90
70820;DHT22;58439;51.046;13.692;2023-02-23T18:00:54;11.30;99.90
70820;DHT22;58439;51.046;13.692;2023-02-23T18:03:23;11.30;99.90
70820;DHT22;58439;51.046;13.692;2023-02-23T18:06:05;11.30;99.90
70820;DHT22;58439;51.046;13.692;2023-02-23T18:08:38;11.20;99.90
70820;DHT22;58439;51.046;13.692;2023-02-23T18:11:08;11.20;99.90
70820;DHT22;58439;51.046;13.692;2023-02-23T18:13:43;11.20;99.90
70820;DHT22;58439;51.046;13.692;2023-02-23T18:16:13;11.10;99.90
70820;DHT22;58439;51.046;13.692;2023-02-23T18:18:51;11.10;99.90
70820;DHT22;58439;51.046;13.692;2023-02-23T18:21:21;11.10;99.90
70820;DHT22;58439;51.046;13.692;2023-02-23T18:23:49;11.00;99.90
70820;DHT22;58439;51.046;13.692;2023-02-23T18:26:26;11.00;99.90
70820;DHT22;58439;51.046;13.692;2023-02-23T18:29:31;10.90;99.90
70820;DHT22;58439;51.046;13.692;2023-02-23T18:32:04;10.90;99.90
70820;DHT22;58439;51.046;13.692;2023-02-23T18:34:34;10.90;99.90
70820;DHT22;58439;51.046;13.692;2023-02-23T18:37:02;10.90;99.90
70820;DHT22;58439;51.046;13.692;2023-02-23T18:39:31;10.80;99.90
70820;DHT22;58439;51.046;13.692;2023-02-23T18:42:06;10.80;99.90
70820;DHT22;58439;51.046;13.692;2023-02-23T18:44:33;10.80;99.90
70820;DHT22;58439;51.046;13.692;2023-02-23T18:47:01;10.70;99.90
70820;DHT22;58439;51.046;13.692;2023-02-23T18:49:28;10.70;99.90
70820;DHT22;58439;51.046;13.692;2023-02-23T18:51:55;10.70;99.90
70820;DHT22;58439;51.046;13.692;2023-02-23T18:54:24;10.70;99.90
70820;DHT22;58439;51.046;13.692;2023-02-23T18:56:51;10.80;99.90
70820;DHT22;58439;51.046;13.692;2023-02-23T18:59:21;10.70;99.90
70820;DHT22;58439;51.046;13.692;2023-02-23T19:01:48;10.70;99.90
70820;DHT22;58439;51.046;13.692;2023-02-23T19:04:18;10.70;99.90
70820;DHT22;58439;51.046;13.692;2023-02-23T19:06:46;10.70;99.90
70820;DHT22;58439;51.046;13.692;2023-02-23T19:09:14;10.70;99.90
70820;DHT22;58439;51.046;13.692;2023-02-23T19:11:47;10.70;99.90
70820;DHT22;58439;51.046;13.692;2023-02-23T19:14:18;10.60;99.90
70820;DHT22;58439;51.046;13.692;2023-02-23T19:16:58;10.60;99.90
70820;DHT22;58439;51.046;13.692;2023-02-23T19:19:26;10.60;99.90
70820;DHT22;58439;51.046;13.692;2023-02-23T19:21:56;10.60;99.90
70820;DHT22;58439;51.046;13.692;2023-02-23T19:24:24;10.60;99.90
70820;DHT22;58439;51.046;13.692;2023-02-23T19:26:51;10.60;99.90
70820;DHT22;58439;51.046;13.692;2023-02-23T19:29:19;10.60;99.90
70820;DHT22;58439;51.046;13.692;2023-02-23T19:31:48;10.60;99.90
70820;DHT22;58439;51.046;13.692;2023-02-23T19:34:15;10.60;99.90
70820;DHT22;58439;51.046;13.692;2023-02-23T19:36:43;10.60;99.90
70820;DHT22;58439;51.046;13.692;2023-02-23T19:39:12;10.60;99.90
70820;DHT22;58439;51.046;13.692;2023-02-23T19:41:42;10.60;99.90
70820;DHT22;58439;51.046;13.692;2023-02-23T19:44:11;10.60;99.90
70820;DHT22;58439;51.046;13.692;2023-02-23T19:46:41;10.60;99.90
70820;DHT22;58439;51.046;13.692;2023-02-23T19:49:09;10.60;99.90
70820;DHT22;58439;51.046;13.692;2023-02-23T19:51:36;10.60;99.90
70820;DHT22;58439;51.046;13.692;2023-02-23T19:54:04;10.50;99.90
70820;DHT22;58439;51.046;13.692;2023-02-23T19:56:32;10.50;99.90
70820;DHT22;58439;51.046;13.692;2023-02-23T19:59:00;10.50;99.90
70820;DHT22;58439;51.046;13.692;2023-02-23T20:01:31;10.40;99.90
70820;DHT22;58439;51.046;13.692;2023-02-23T20:03:59;10.40;99.90
70820;DHT22;58439;51.046;13.692;2023-02-23T20:06:39;10.30;99.90
70820;DHT22;58439;51.046;13.692;2023-02-23T20:09:10;10.30;99.90
70820;DHT22;58439;51.046;13.692;2023-02-23T20:11:38;10.20;99.90
70820;DHT22;58439;51.046;13.692;2023-02-23T20:14:06;10.20;99.90
70820;DHT22;58439;51.046;13.692;2023-02-23T20:16:34;10.20;99.90
70820;DHT22;58439;51.046;13.692;2023-02-23T20:19:05;10.10;99.90
70820;DHT22;58439;51.046;13.692;2023-02-23T20:21:35;10.10;99.90
70820;DHT22;58439;51.046;13.692;2023-02-23T20:24:03;10.10;99.90
70820;DHT22;58439;51.046;13.692;2023-02-23T20:26:34;10.10;99.90
70820;DHT22;58439;51.046;13.692;2023-02-23T20:29:04;10.10;99.90
70820;DHT22;58439;51.046;13.692;2023-02-23T20:31:38;10.10;99.90
70820;DHT22;58439;51.046;13.692;2023-02-23T20:34:08;10.00;99.90
70820;DHT22;58439;51.046;13.692;2023-02-23T20:36:39;10.10;99.90
70820;DHT22;58439;51.046;13.692;2023-02-23T20:39:06;10.10;99.90
70820;DHT22;58439;51.046;13.692;2023-02-23T20:41:37;10.10;99.90
70820;DHT22;58439;51.046;13.692;2023-02-23T20:44:09;10.10;99.90
70820;DHT22;58439;51.046;13.692;2023-02-23T20:46:39;10.10;99.90
70820;DHT22;58439;51.046;13.692;2023-02-23T20:49:12;10.10;99.90
70820;DHT22;58439;51.046;13.692;2023-02-23T20:51:43;10.10;99.90
70820;DHT22;58439;51.046;13.692;2023-02-23T20:54:13;10.10;99.90
70820;DHT22;58439;51.046;13.692;2023-02-23T20:56:41;10.10;99.90
70820;DHT22;58439;51.046;13.692;2023-02-23T20:59:09;10.10;99.90
70820;DHT22;58439;51.046;13.692;2023-02-23T21:01:39;10.10;99.90
70820;DHT22;58439;51.046;13.692;2023-02-23T21:04:11;10.10;99.90
70820;DHT22;58439;51.046;13.692;2023-02-23T21:06:39;10.10;99.90
70820;DHT22;58439;51.046;13.692;2023-02-23T21:09:06;10.00;99.90
70820;DHT22;58439;51.046;13.692;2023-02-23T21:11:38;10.00;99.90
70820;DHT22;58439;51.046;13.692;2023-02-23T21:14:05;10.00;99.90
70820;DHT22;58439;51.046;13.692;2023-02-23T21:16:34;10.00;99.90
70820;DHT22;58439;51.046;13.692;2023-02-23T21:19:02;10.00;99.90
70820;DHT22;58439;51.046;13.692;2023-02-23T21:21:40;10.00;99.90
70820;DHT22;58439;51.046;13.692;2023-02-23T21:24:10;10.10;99.90
70820;DHT22;58439;51.046;13.692;2023-02-23T21:26:38;10.10;99.90
70820;DHT22;58439;51.046;13.692;2023-02-23T21:29:06;10.10;99.90
70820;DHT22;58439;51.046;13.692;2023-02-23T21:31:42;10.10;99.90
70820;DHT22;58439;51.046;13.692;2023-02-23T21:34:12;10.10;99.90
70820;DHT22;58439;51.046;13.692;2023-02-23T21:36:41;10.10;99.90
70820;DHT22;58439;51.046;13.692;2023-02-23T21:39:08;10.20;99.90
70820;DHT22;58439;51.046;13.692;2023-02-23T21:41:35;10.20;99.90
70820;DHT22;58439;51.046;13.692;2023-02-23T21:44:06;10.20;99.90
70820;DHT22;58439;51.046;13.692;2023-02-23T21:46:34;10.10;99.90
70820;DHT22;58439;51.046;13.692;2023-02-23T21:49:01;10.10;99.90
70820;DHT22;58439;51.046;13.692;2023-02-23T21:51:36;10.10;99.90
70820;DHT22;58439;51.046;13.692;2023-02-23T21:54:04;10.00;99.90